Terminal Aerodrome Forecast
Issued by NWS Atlanta, GA

Home | Current Version | Previous Version | Text Only | Print | Product List | Glossary On
Versions: 1 2 3 4 5 6 7 8 9 10 11 12 13 14 15 16 17 18 19 20 21 22 23 24 25
000
FTUS42 KFFC 230500
TAFMCN
TAF
KMCN 230526Z 2306/2406 00000KT P6SM VCSH SCT035
     FM230900 00000KT 5SM BR SCT008 SCT030
      TEMPO 2310/2314 BKN008
     FM231400 00000KT P6SM SCT025
     FM231700 25004KT P6SM VCSH SCT035 BKN050
     FM240000 00000KT P6SM SCT120=

USA.gov is the U.S. government's official web portal to all federal, state and local government web resources and services.